Latest Weather Observations for Lucinda

IDQ60801

Issued at 7:12 pm EST Sunday 29 March 2020 (issued every 10 minutes, with the page automatically refreshed every 10 minutes)

About weather observations | Map of weather stations | Latest weather observations for QLD | Other Formats
Station Details ID: 032141 Name: LUCINDA POINT Lat: -18.52 Lon: 146.39 Height: 10.0 m
Data from the previous 72 hours. | See also: Recent months at Lucinda
Date/Time
EST
Temp
°C
App
Temp
°C
Dew
Point
°C
Rel
Hum
%
Delta-T
°C
Wind Press
QNH
hPa
Press
MSL
hPa
Rain since
9am
mm
Dir  Spd
km/h
Gust
km/h
Spd
kts
Gust
kts
29/07:00pm 27.4 27.9 21.9 72 3.7 ESE 22 41 12 22 1012.2 1012.1 -
29/06:30pm 27.3 28.0 21.6 71 3.8 SE 20 33 11 18 1012.0 1011.9 -
29/06:00pm 27.3 27.8 22.0 73 3.6 SE 22 43 12 23 1011.8 1011.7 -
29/05:30pm 27.5 27.0 20.8 67 4.4 SE 24 39 13 21 1011.3 1011.2 -
29/05:00pm 27.6 27.8 22.1 72 3.7 SE 24 39 13 21 1011.0 1010.9 -
29/04:30pm 27.7 27.5 22.0 71 3.8 SE 26 41 14 22 1010.7 1010.6 -
29/04:00pm 27.9 28.3 22.4 72 3.7 ESE 24 41 13 22 1010.7 1010.6 -
29/03:30pm 27.8 27.3 22.1 71 3.8 SE 28 43 15 23 1010.5 1010.4 -
29/03:00pm 27.9 28.3 21.7 69 4.2 SE 22 37 12 20 1010.7 1010.6 -
29/02:30pm 27.8 28.2 21.8 70 4.0 SE 22 41 12 22 1010.9 1010.8 -
29/02:00pm 28.0 29.2 22.5 72 3.7 SE 20 33 11 18 1011.0 1010.9 -
29/01:30pm 27.6 29.2 22.8 75 3.3 SSE 19 32 10 17 1011.3 1011.2 -
29/01:00pm 27.6 29.4 22.5 74 3.5 SSE 17 35 9 19 1011.7 1011.6 -
29/12:30pm 27.6 29.2 22.8 75 3.3 SE 19 33 10 18 1012.0 1011.9 -
29/12:00pm 27.0 28.7 23.0 79 2.7 S 19 28 10 15 1012.1 1012.0 -
29/11:30am 26.7 28.9 23.2 81 2.4 S 17 26 9 14 1012.6 1012.5 -
29/11:00am 26.4 26.3 22.3 78 2.8 S 26 32 14 17 1012.8 1012.7 -
29/10:30am 26.3 26.0 22.6 80 2.5 S 28 39 15 21 1013.0 1012.9 -
29/10:00am 26.1 25.6 22.2 79 2.6 S 28 35 15 19 1013.0 1012.9 -
29/09:30am 26.3 26.3 22.4 79 2.6 S 26 33 14 18 1013.0 1012.9 -
29/09:00am 26.5 27.1 22.8 80 2.5 S 24 30 13 16 1012.9 1012.8 -
29/08:30am 26.4 28.3 22.7 80 2.5 S 17 26 9 14 1012.8 1012.7 -
29/08:00am 26.2 28.2 22.9 82 2.2 S 17 30 9 16 1012.5 1012.4 -
29/07:30am 25.5 - - - - S 19 28 10 15 1012.2 1012.1 -
29/07:00am 24.7 - - - - SE 19 39 10 21 1011.9 1011.8 -
29/06:45am 24.4 24.1 21.1 82 2.2 SSE 24 52 13 28 1011.9 1011.8 -
29/06:30am 26.0 25.6 22.3 80 2.5 S 28 39 15 21 1011.4 1011.3 -
29/06:00am 26.0 27.1 22.3 80 2.5 S 20 30 11 16 1011.2 1011.1 -
29/05:30am 26.1 27.5 22.6 81 2.4 S 19 28 10 15 1011.1 1011.0 -
29/05:00am 26.1 27.5 22.6 81 2.4 S 19 28 10 15 1010.8 1010.7 -
29/04:30am 26.1 27.9 22.6 81 2.4 S 17 24 9 13 1010.5 1010.4 -
29/04:00am 26.1 27.3 22.2 79 2.6 S 19 30 10 16 1010.4 1010.3 -
29/03:30am 26.3 27.9 22.2 78 2.8 S 17 24 9 13 1010.4 1010.3 -
29/03:00am 26.1 28.1 23.0 83 2.1 S 17 26 9 14 1010.6 1010.5 -
29/02:30am 25.6 27.1 22.7 84 2.0 S 19 26 10 14 1010.8 1010.7 -
29/02:00am 25.8 28.1 22.1 80 2.5 S 13 20 7 11 1011.0 1010.9 -
29/01:30am 26.1 26.8 21.5 76 3.1 SE 20 35 11 19 1011.3 1011.2 -
29/01:00am 27.1 27.6 22.7 77 3.0 ESE 24 37 13 20 1011.8 1011.7 -
29/12:30am 26.9 27.6 22.3 76 3.1 SE 22 39 12 21 1012.1 1012.0 -
29/12:00am 27.1 28.4 22.3 75 3.2 SE 19 32 10 17 1012.3 1012.2 -
 
Date/Time
EST
Temp
°C
App
Temp
°C
Dew
Point
°C
Rel
Hum
%
Delta-T
°C
Wind Press
QNH
hPa
Press
MSL
hPa
Rain since
9am
mm
Dir  Spd
km/h
Gust
km/h
Spd
kts
Gust
kts
28/11:30pm 26.9 28.8 22.7 78 2.8 ESE 17 28 9 15 1012.6 1012.5 -
28/11:00pm 26.8 28.8 22.2 76 3.1 SE 15 30 8 16 1013.0 1012.9 -
28/10:30pm 26.8 28.6 21.1 71 3.8 SE 13 32 7 17 1013.2 1013.1 -
28/10:00pm 26.5 28.5 21.5 74 3.3 SE 13 20 7 11 1013.3 1013.2 -
28/09:30pm 26.7 27.7 21.0 71 3.8 SE 17 26 9 14 1013.0 1012.9 -
28/09:00pm 26.8 27.2 20.9 70 3.9 ESE 20 33 11 18 1012.7 1012.6 -
28/08:30pm 26.4 26.4 20.9 72 3.6 SE 22 35 12 19 1012.3 1012.2 -
28/08:00pm 25.9 26.2 21.6 77 2.9 SE 22 35 12 19 1012.1 1012.0 -
28/07:30pm 26.2 25.2 21.2 74 3.3 ESE 28 43 15 23 1011.8 1011.7 -
28/07:06pm 26.1 25.3 21.7 77 2.9 SE 28 48 15 26 1011.5 1011.4 -
28/07:00pm 26.2 26.1 21.4 75 3.2 SE 24 48 13 26 1011.5 1011.4 -
28/06:34pm 25.4 25.3 22.9 86 1.7 ESE 28 46 15 25 1011.3 1011.2 -
28/06:30pm 25.4 26.1 22.9 86 1.7 ESE 24 44 13 24 1011.3 1011.2 -
28/06:00pm 25.9 26.6 23.0 84 2.0 SE 24 39 13 21 1010.9 1010.8 -
28/05:30pm 25.2 25.9 22.9 87 1.6 ESE 24 39 13 21 1010.8 1010.7 -
28/05:00pm 25.6 28.1 23.1 86 1.7 SE 15 28 8 15 1010.5 1010.4 -
28/04:30pm 25.9 28.2 23.4 86 1.7 SE 17 32 9 17 1010.5 1010.4 -
28/04:00pm 25.4 27.8 22.9 86 1.7 SE 15 26 8 14 1010.3 1010.2 -
28/03:30pm 25.5 26.5 22.8 85 1.8 SE 22 37 12 20 1010.4 1010.3 -
28/03:00pm 25.2 25.0 22.1 83 2.1 ESE 26 41 14 22 1010.7 1010.6 -
28/02:30pm 25.2 - - - - SE 20 33 11 18 1011.0 1010.9 -
28/02:00pm 25.2 - - - - SSE 13 19 7 10 1011.4 1011.3 -
28/01:30pm 24.8 27.2 22.3 86 1.7 S 13 20 7 11 1011.9 1011.8 -
28/01:00pm 25.7 25.7 23.0 85 1.8 S 28 33 15 18 1012.0 1011.9 -
28/12:30pm 25.5 26.3 22.4 83 2.1 S 22 30 12 16 1012.3 1012.2 -
28/12:00pm 25.0 24.7 21.9 83 2.1 S 26 32 14 17 1012.6 1012.5 -
28/11:30am 24.7 24.5 22.0 85 1.8 S 26 39 14 21 1013.0 1012.9 -
28/11:00am 25.4 25.9 21.1 77 2.8 S 20 28 11 15 1013.4 1013.3 -
28/10:30am 24.7 24.6 20.8 79 2.6 S 22 32 12 17 1013.5 1013.4 -
28/10:00am 24.8 25.0 21.3 81 2.3 S 22 33 12 18 1013.7 1013.6 -
28/09:30am 25.3 - - - - S 30 43 16 23 1013.4 1013.3 -
28/09:00am 24.8 - - - - S 24 30 13 16 1013.4 1013.3 -
28/08:30am 24.7 - - - - SSE 15 32 8 17 1013.0 1012.9 -
28/08:00am 24.4 - - - - S 19 28 10 15 1012.5 1012.4 -
28/07:30am 25.6 27.6 22.9 85 1.8 S 17 33 9 18 1012.1 1012.0 -
28/07:00am 24.5 25.5 21.8 85 1.8 SSE 19 35 10 19 1011.9 1011.8 -
28/06:30am 25.9 25.7 22.0 79 2.6 S 26 35 14 19 1011.4 1011.3 -
28/06:00am 25.8 26.8 22.1 80 2.5 S 20 30 11 16 1011.1 1011.0 -
28/05:30am 25.9 26.7 22.4 81 2.4 S 22 35 12 19 1011.2 1011.1 -
28/05:00am 25.9 26.7 22.4 81 2.4 S 22 32 12 17 1011.1 1011.0 -
28/04:30am 26.0 27.7 22.3 80 2.5 S 17 24 9 13 1010.8 1010.7 -
28/04:00am 26.1 27.4 22.4 80 2.5 S 19 30 10 16 1010.8 1010.7 -
28/03:30am 26.1 27.6 22.0 78 2.7 SSE 17 30 9 16 1010.9 1010.8 -
28/03:00am 26.3 27.9 22.2 78 2.8 SSE 17 30 9 16 1011.2 1011.1 -
28/02:30am 26.3 27.5 22.2 78 2.8 SSE 19 32 10 17 1011.3 1011.2 -
28/02:00am 26.4 27.7 22.3 78 2.8 S 19 28 10 15 1011.5 1011.4 -
28/01:30am 26.4 28.1 23.1 82 2.2 SSE 19 33 10 18 1011.8 1011.7 -
28/01:00am 26.0 28.2 23.3 85 1.8 S 17 26 9 14 1012.0 1011.9 -
28/12:30am 25.8 28.1 22.1 80 2.5 S 13 35 7 19 1012.5 1012.4 -
28/12:00am 26.4 27.7 22.3 78 2.8 SE 19 33 10 18 1012.6 1012.5 -
 
Date/Time
EST
Temp
°C
App
Temp
°C
Dew
Point
°C
Rel
Hum
%
Delta-T
°C
Wind Press
QNH
hPa
Press
MSL
hPa
Rain since
9am
mm
Dir  Spd
km/h
Gust
km/h
Spd
kts
Gust
kts
27/11:30pm 27.3 29.2 22.7 76 3.1 SE 17 26 9 14 1012.8 1012.7 -
27/11:00pm 27.2 28.5 22.4 75 3.2 SE 19 28 10 15 1013.1 1013.0 -
27/10:30pm 27.0 29.3 22.8 78 2.8 SSE 15 24 8 13 1013.3 1013.2 -
27/10:00pm 27.2 29.7 22.4 75 3.2 SE 13 20 7 11 1013.5 1013.4 -
27/09:30pm 27.2 29.7 22.4 75 3.2 SE 13 20 7 11 1013.5 1013.4 -
27/09:00pm 27.1 30.4 22.5 76 3.1 SSE 9 13 5 7 1013.5 1013.4 -
27/08:30pm 27.0 30.2 22.4 76 3.1 SSE 9 15 5 8 1013.4 1013.3 -
27/08:00pm 27.1 29.9 22.3 75 3.2 SSE 11 20 6 11 1013.2 1013.1 -
27/07:30pm 27.2 29.9 22.2 74 3.4 ESE 11 20 6 11 1012.9 1012.8 -
27/07:00pm 27.1 29.6 21.8 73 3.5 ESE 11 20 6 11 1012.6 1012.5 -
27/06:30pm 27.1 29.0 21.4 71 3.8 ESE 13 20 7 11 1012.3 1012.2 -
27/06:00pm 27.4 29.5 21.0 68 4.2 ESE 11 20 6 11 1012.0 1011.9 -
27/05:30pm 27.5 28.1 20.3 65 4.7 SE 17 24 9 13 1011.8 1011.7 -
27/05:00pm 27.5 28.4 20.1 64 4.8 SE 15 26 8 14 1011.7 1011.6 -
27/04:30pm 27.8 29.7 21.3 67 4.3 SSE 13 24 7 13 1011.6 1011.5 -
27/04:00pm 27.5 28.4 21.5 70 4.0 SE 19 30 10 16 1011.7 1011.6 -
27/03:30pm 27.7 29.2 22.0 71 3.8 SE 17 30 9 16 1011.7 1011.6 -
27/03:00pm 27.9 29.0 22.4 72 3.7 SE 20 30 11 16 1012.0 1011.9 -
27/02:30pm 27.7 29.6 22.0 71 3.8 SSE 15 24 8 13 1012.3 1012.2 -
27/02:00pm 27.5 28.4 22.0 72 3.7 SE 20 32 11 17 1012.6 1012.5 -
27/01:30pm 27.3 28.8 22.0 73 3.6 SSE 17 32 9 17 1013.0 1012.9 -
27/01:00pm 27.3 28.2 22.0 73 3.6 SE 20 35 11 19 1013.2 1013.1 -
27/12:30pm 27.4 29.5 22.4 74 3.4 SSE 15 24 8 13 1013.7 1013.6 -
27/12:00pm 27.2 28.6 21.9 73 3.6 SSE 17 28 9 15 1014.0 1013.9 -
27/11:30am 26.7 26.3 21.7 74 3.3 ESE 26 32 14 17 1014.3 1014.2 -
27/11:00am 26.7 26.8 21.9 75 3.2 SE 24 33 13 18 1014.4 1014.3 -
27/10:30am 26.7 26.3 21.7 74 3.3 SE 26 37 14 20 1014.5 1014.4 -
27/10:00am 26.6 27.6 21.8 75 3.2 SE 19 30 10 16 1014.6 1014.5 -
27/09:30am 26.6 28.0 21.8 75 3.2 S 17 28 9 15 1014.5 1014.4 -
27/09:00am 26.5 27.7 21.5 74 3.3 S 17 26 9 14 1014.4 1014.3 -
27/08:30am 26.4 27.8 21.8 76 3.1 S 17 24 9 13 1014.2 1014.1 -
27/08:00am 26.1 26.3 22.0 78 2.7 S 24 32 13 17 1013.9 1013.8 -
27/07:30am 26.0 27.6 22.1 79 2.6 S 17 30 9 16 1013.7 1013.6 -
27/07:00am 26.2 28.7 22.5 80 2.5 S 13 20 7 11 1013.5 1013.4 -
27/06:30am 26.2 27.5 22.3 79 2.6 S 19 24 10 13 1013.2 1013.1 -
27/06:00am 26.0 27.9 22.7 82 2.2 S 17 22 9 12 1012.9 1012.8 -
27/05:30am 25.8 - - - - S 22 33 12 18 1012.7 1012.6 -
27/05:00am 25.1 - - - - SSE 13 24 7 13 1012.5 1012.4 -
27/04:30am 24.1 24.8 21.6 86 1.7 SE 20 37 11 20 1012.4 1012.3 -
27/04:00am 25.6 27.6 22.3 82 2.2 SSE 15 32 8 17 1012.2 1012.1 -
27/03:30am 26.1 27.2 22.4 80 2.5 SE 20 32 11 17 1012.2 1012.1 -
27/03:00am 26.8 27.8 22.2 76 3.1 SE 20 32 11 17 1012.3 1012.2 -
27/02:30am 27.0 27.9 22.0 74 3.4 ESE 20 33 11 18 1012.6 1012.5 -
27/02:00am 27.2 28.4 22.2 74 3.4 ESE 19 32 10 17 1012.9 1012.8 -
27/01:30am 27.3 28.2 22.0 73 3.6 SE 20 35 11 19 1013.3 1013.2 -
27/01:00am 27.3 28.4 22.3 74 3.4 ESE 20 35 11 19 1013.5 1013.4 -
27/12:30am 27.3 28.6 22.7 76 3.1 SE 20 30 11 16 1013.7 1013.6 -
27/12:00am 27.4 27.9 22.6 75 3.2 SE 24 35 13 19 1013.9 1013.8 -
 
Date/Time
EST
Temp
°C
App
Temp
°C
Dew
Point
°C
Rel
Hum
%
Delta-T
°C
Wind Press
QNH
hPa
Press
MSL
hPa
Rain since
9am
mm
Dir  Spd
km/h
Gust
km/h
Spd
kts
Gust
kts
26/11:30pm 27.4 28.5 22.4 74 3.4 SE 20 37 11 20 1013.9 1013.8 -
26/11:00pm 27.5 28.3 22.4 73 3.4 ESE 22 37 12 20 1013.9 1013.8 -
26/10:30pm 27.4 28.4 22.1 73 3.6 ESE 20 35 11 19 1014.1 1014.0 -
26/10:00pm 27.5 28.5 22.2 73 3.6 ESE 20 35 11 19 1014.2 1014.1 -
26/09:30pm 27.5 28.0 22.0 72 3.7 SE 22 41 12 22 1014.4 1014.3 -
26/09:00pm 27.4 27.8 21.7 71 3.8 ESE 22 35 12 19 1014.2 1014.1 -
26/08:30pm 27.5 27.8 22.2 73 3.6 SE 24 37 13 20 1014.0 1013.9 -
26/08:00pm 27.4 27.6 22.1 73 3.6 SE 24 39 13 21 1013.7 1013.6 -
26/07:30pm 27.3 27.5 22.0 73 3.6 ESE 24 39 13 21 1013.6 1013.5 -

Other formats

Comma delimited format used in spreadsheet applications
http://www.bom.gov.au/fwo/IDQ60801/IDQ60801.94295.axf

JavaScript Object Notation format (JSON) in row-major order
http://www.bom.gov.au/fwo/IDQ60801/IDQ60801.94295.json

Data quality

Most of these data are generated automatically and are frequently updated. Quality checks on data are not normally performed. It is possible for incorrect values to appear. Refer to information at About Latest Weather Observations and please check the disclaimer before using these data.